createdAt,value
2017-09-06T00:01:52.384Z,8.60
2017-09-06T00:04:19.065Z,9.50
2017-09-06T00:06:45.719Z,9.18
2017-09-06T00:09:12.383Z,9.57
2017-09-06T00:11:39.039Z,9.25
2017-09-06T00:14:05.702Z,10.10
2017-09-06T00:16:32.368Z,9.15
2017-09-06T00:18:59.022Z,8.70
2017-09-06T00:21:25.712Z,8.43
2017-09-06T00:23:52.368Z,8.50
2017-09-06T00:26:19.031Z,8.57
2017-09-06T00:28:45.686Z,8.60
2017-09-06T00:31:12.344Z,9.13
2017-09-06T00:33:39.007Z,8.75
2017-09-06T00:36:05.671Z,8.48
2017-09-06T00:38:32.323Z,8.77
2017-09-06T00:40:58.987Z,9.27
2017-09-06T00:43:25.643Z,8.88
2017-09-06T00:45:52.298Z,8.27
2017-09-06T00:48:18.951Z,8.57
2017-09-06T00:50:45.606Z,8.55
2017-09-06T00:53:12.267Z,8.02
2017-09-06T00:55:38.915Z,7.57
2017-09-06T00:58:05.607Z,9.23
2017-09-06T01:00:32.277Z,8.73
2017-09-06T01:02:58.933Z,7.90
2017-09-06T01:05:25.587Z,8.20
2017-09-06T01:07:52.252Z,9.52
2017-09-06T01:10:18.911Z,9.43
2017-09-06T01:12:45.579Z,9.52
2017-09-06T01:15:12.255Z,9.20
2017-09-06T01:17:38.907Z,8.65
2017-09-06T01:20:05.599Z,9.70
2017-09-06T01:22:32.259Z,9.23
2017-09-06T01:24:58.949Z,10.80
2017-09-06T01:27:25.627Z,9.45
2017-09-06T01:29:52.319Z,9.52
2017-09-06T01:32:18.984Z,10.35
2017-09-06T01:34:45.640Z,9.95
2017-09-06T01:37:12.291Z,8.80
2017-09-06T01:39:38.954Z,10.60
2017-09-06T01:42:05.644Z,11.00
2017-09-06T01:44:32.312Z,10.18
2017-09-06T01:46:59.003Z,10.15
2017-09-06T01:49:25.662Z,9.88
2017-09-06T01:51:52.351Z,11.12
2017-09-06T01:54:19.019Z,10.40
2017-09-06T01:56:45.727Z,12.10
2017-09-06T01:59:12.391Z,12.48
2017-09-06T02:01:39.055Z,13.73
2017-09-06T02:04:05.715Z,15.27
2017-09-06T02:06:32.380Z,16.12
2017-09-06T02:08:59.044Z,13.02
2017-09-06T02:11:25.712Z,15.68
2017-09-06T02:13:52.402Z,15.60
2017-09-06T02:16:19.063Z,16.52
2017-09-06T02:18:45.756Z,17.20
2017-09-06T02:21:12.415Z,17.73
2017-09-06T02:23:39.107Z,18.10
2017-09-06T02:26:05.767Z,18.75
2017-09-06T02:28:32.459Z,18.05
2017-09-06T02:30:59.119Z,20.83
2017-09-06T02:33:25.779Z,21.58
2017-09-06T02:35:53.160Z,23.95
2017-09-06T02:38:19.824Z,23.80
2017-09-06T02:40:46.489Z,25.17
2017-09-06T02:43:13.151Z,28.85
2017-09-06T02:45:39.838Z,27.08
2017-09-06T02:48:06.500Z,28.17
2017-09-06T02:50:33.183Z,28.10
2017-09-06T02:52:59.843Z,27.05
2017-09-06T02:55:26.531Z,24.73
2017-09-06T02:57:53.327Z,27.15
2017-09-06T03:00:20.011Z,25.50
2017-09-06T03:02:46.671Z,25.75
2017-09-06T03:05:13.397Z,26.70
2017-09-06T03:07:40.059Z,27.87
2017-09-06T03:10:06.719Z,29.15
2017-09-06T03:12:33.383Z,30.83
2017-09-06T03:15:00.047Z,27.67
2017-09-06T03:17:26.707Z,28.95
2017-09-06T03:19:53.367Z,28.87
2017-09-06T03:22:20.027Z,26.92
2017-09-06T03:24:46.695Z,27.77
2017-09-06T03:27:13.375Z,27.70
2017-09-06T03:29:40.035Z,30.27
2017-09-06T03:32:06.724Z,27.02
2017-09-06T03:34:33.384Z,27.85
2017-09-06T03:37:00.067Z,29.30
2017-09-06T03:39:26.728Z,28.77
2017-09-06T03:41:53.443Z,28.70
2017-09-06T03:44:20.108Z,28.33
2017-09-06T03:46:46.781Z,27.00
2017-09-06T03:49:13.460Z,29.73
2017-09-06T03:51:40.119Z,28.38
2017-09-06T03:54:06.787Z,28.55
2017-09-06T03:56:33.447Z,27.13
2017-09-06T03:59:00.111Z,29.83
2017-09-06T04:01:26.772Z,28.65
2017-09-06T04:03:53.459Z,28.85
2017-09-06T04:06:20.123Z,28.10
2017-09-06T04:08:46.806Z,25.05
2017-09-06T04:11:13.471Z,28.30
2017-09-06T04:13:40.164Z,26.35
2017-09-06T04:16:06.828Z,27.52
2017-09-06T04:18:33.492Z,27.23
2017-09-06T04:21:00.155Z,28.00
2017-09-06T04:23:26.815Z,27.05
2017-09-06T04:25:53.479Z,27.37
2017-09-06T04:28:20.156Z,27.00
2017-09-06T04:30:46.819Z,27.27
2017-09-06T04:33:13.479Z,27.92
2017-09-06T04:35:40.163Z,24.52
2017-09-06T04:38:06.823Z,24.73
2017-09-06T04:40:33.531Z,25.62
2017-09-06T04:43:00.191Z,27.73
2017-09-06T04:45:26.863Z,27.37
2017-09-06T04:47:53.528Z,29.25
2017-09-06T04:50:20.188Z,26.95
2017-09-06T04:52:46.848Z,25.12
2017-09-06T04:55:13.503Z,27.83
2017-09-06T04:57:40.163Z,28.00
2017-09-06T05:00:06.823Z,25.67
2017-09-06T05:02:33.487Z,24.63
2017-09-06T05:05:00.152Z,23.05
2017-09-06T05:07:26.844Z,26.73
2017-09-06T05:09:53.527Z,20.08
2017-09-06T05:12:20.211Z,23.08
2017-09-06T05:14:46.871Z,23.23
2017-09-06T05:17:13.531Z,23.25
2017-09-06T05:19:40.196Z,22.83
2017-09-06T05:22:06.859Z,20.75
2017-09-06T05:24:33.523Z,23.80
2017-09-06T05:27:00.191Z,22.60
2017-09-06T05:29:26.852Z,23.48
2017-09-06T05:31:53.511Z,22.90
2017-09-06T05:34:20.168Z,21.70
2017-09-06T05:36:46.832Z,21.75
2017-09-06T05:39:13.520Z,22.23
2017-09-06T05:41:40.203Z,19.37
2017-09-06T05:44:06.896Z,22.80
2017-09-06T05:46:33.555Z,21.48
2017-09-06T05:49:00.215Z,21.45
2017-09-06T05:51:26.875Z,20.37
2017-09-06T05:53:53.539Z,19.80
2017-09-06T05:56:20.196Z,20.25
2017-09-06T05:58:46.855Z,20.70
2017-09-06T06:01:13.518Z,18.33
2017-09-06T06:03:40.179Z,19.50
2017-09-06T06:06:06.844Z,19.50
2017-09-06T06:08:33.508Z,18.62
2017-09-06T06:11:00.176Z,19.62
2017-09-06T06:13:26.839Z,20.10
2017-09-06T06:15:53.523Z,16.35
2017-09-06T06:18:20.189Z,16.33
2017-09-06T06:20:46.859Z,17.70
2017-09-06T06:23:13.532Z,16.48
2017-09-06T06:25:40.205Z,16.20
2017-09-06T06:28:06.880Z,15.52
2017-09-06T06:30:33.552Z,17.42
2017-09-06T06:33:00.212Z,16.73
2017-09-06T06:35:26.884Z,15.83
2017-09-06T06:37:53.544Z,13.67
2017-09-06T06:40:20.208Z,15.70
2017-09-06T06:42:46.870Z,15.90
2017-09-06T06:45:13.531Z,14.30
2017-09-06T06:47:40.235Z,14.20
2017-09-06T06:50:06.896Z,12.60
2017-09-06T06:52:33.563Z,12.47
2017-09-06T06:55:00.223Z,12.53
2017-09-06T06:57:26.895Z,13.33
2017-09-06T06:59:53.555Z,14.33
2017-09-06T07:02:20.220Z,17.00
2017-09-06T07:04:46.903Z,17.83
2017-09-06T07:07:13.571Z,17.83
2017-09-06T07:09:40.256Z,18.30
2017-09-06T07:12:06.915Z,18.43
2017-09-06T07:14:33.612Z,15.50
2017-09-06T07:17:00.267Z,15.17
2017-09-06T07:19:26.929Z,15.87
2017-09-06T07:21:53.607Z,13.83
2017-09-06T07:24:20.271Z,14.20
2017-09-06T07:26:46.955Z,13.10
2017-09-06T07:29:13.615Z,14.17
2017-09-06T07:31:40.300Z,14.20
2017-09-06T07:34:06.964Z,13.60
2017-09-06T07:36:33.647Z,13.63
2017-09-06T07:39:00.308Z,12.53
2017-09-06T07:41:26.991Z,14.53
2017-09-06T07:43:53.659Z,15.03
2017-09-06T07:46:20.344Z,15.60
2017-09-06T07:48:46.995Z,16.90
2017-09-06T07:51:13.700Z,17.27
2017-09-06T07:53:40.364Z,17.60
2017-09-06T07:56:07.032Z,17.30
2017-09-06T07:58:33.695Z,19.07
2017-09-06T08:01:00.359Z,18.30
2017-09-06T08:03:27.044Z,19.73
2017-09-06T08:05:53.707Z,21.50
2017-09-06T08:08:20.395Z,20.90
2017-09-06T08:10:47.055Z,21.77
2017-09-06T08:13:13.735Z,23.27
2017-09-06T08:15:40.396Z,22.90
2017-09-06T08:18:07.084Z,23.30
2017-09-06T08:20:33.755Z,23.97
2017-09-06T08:23:00.419Z,25.13
2017-09-06T08:25:27.092Z,24.77
2017-09-06T08:27:53.760Z,23.33
2017-09-06T08:30:20.420Z,22.50
2017-09-06T08:32:47.079Z,22.40
2017-09-06T08:35:13.764Z,22.30
2017-09-06T08:37:40.427Z,22.80
2017-09-06T08:40:07.112Z,23.03
2017-09-06T08:42:33.773Z,23.07
2017-09-06T08:45:00.469Z,21.37
2017-09-06T08:47:27.131Z,19.97
2017-09-06T08:49:53.791Z,20.30
2017-09-06T08:52:20.447Z,20.80
2017-09-06T08:54:47.108Z,18.53
2017-09-06T08:57:13.767Z,17.27
2017-09-06T08:59:40.435Z,16.37
2017-09-06T09:02:07.097Z,15.90
2017-09-06T09:04:33.760Z,16.27
2017-09-06T09:07:00.449Z,14.70
2017-09-06T09:09:27.185Z,13.70
2017-09-06T09:11:53.867Z,13.00
2017-09-06T09:14:20.528Z,13.20
2017-09-06T09:16:47.215Z,13.80
2017-09-06T09:19:13.879Z,13.37
2017-09-06T09:21:40.564Z,13.47
2017-09-06T09:24:07.231Z,12.77
2017-09-06T09:26:33.943Z,13.70
2017-09-06T09:29:00.599Z,15.10
2017-09-06T09:31:27.264Z,14.17
2017-09-06T09:33:53.956Z,13.70
2017-09-06T09:36:20.615Z,12.33
2017-09-06T09:38:47.288Z,13.13
2017-09-06T09:41:13.979Z,12.90
2017-09-06T09:43:40.696Z,12.63
2017-09-06T09:46:07.359Z,12.17
2017-09-06T09:48:34.043Z,13.33
2017-09-06T09:51:00.716Z,13.00
2017-09-06T09:53:27.464Z,13.23
2017-09-06T09:55:54.138Z,12.10
2017-09-06T09:58:20.896Z,13.00
2017-09-06T10:00:47.567Z,13.30
2017-09-06T10:03:14.271Z,12.20
2017-09-06T10:05:40.935Z,14.60
2017-09-06T10:08:07.596Z,13.30
2017-09-06T10:10:34.306Z,11.90
2017-09-06T10:13:01.002Z,12.10
2017-09-06T10:15:27.708Z,10.63
2017-09-06T10:17:54.379Z,12.17
2017-09-06T10:20:21.128Z,12.10
2017-09-06T10:22:47.786Z,13.00
2017-09-06T10:25:14.450Z,12.23
2017-09-06T10:27:41.152Z,12.37
2017-09-06T10:30:07.816Z,14.83
2017-09-06T10:32:34.533Z,13.15
2017-09-06T10:35:01.244Z,12.60
2017-09-06T10:37:27.924Z,7.35
2017-09-06T10:39:54.595Z,8.40
2017-09-06T10:42:21.337Z,7.95
2017-09-06T10:44:48.000Z,9.82
2017-09-06T10:47:14.660Z,9.13
2017-09-06T10:49:41.324Z,9.20
2017-09-06T10:52:08.005Z,8.60
2017-09-06T10:54:34.698Z,10.30
2017-09-06T10:57:01.409Z,9.00
2017-09-06T10:59:28.072Z,9.32
2017-09-06T11:01:54.735Z,7.80
2017-09-06T11:04:21.395Z,6.95
2017-09-06T11:06:48.055Z,6.05
2017-09-06T11:09:14.721Z,6.32
2017-09-06T11:11:41.387Z,6.45
2017-09-06T11:14:08.053Z,5.62
2017-09-06T11:16:34.711Z,4.97
2017-09-06T11:19:01.376Z,4.50
2017-09-06T11:21:28.039Z,4.50
2017-09-06T11:23:54.704Z,4.25
2017-09-06T11:26:21.360Z,3.85
2017-09-06T11:28:48.051Z,3.60
2017-09-06T11:31:14.715Z,2.95
2017-09-06T11:33:41.409Z,2.70
2017-09-06T11:36:08.089Z,3.10
2017-09-06T11:38:34.739Z,3.53
2017-09-06T11:41:01.395Z,3.10
2017-09-06T11:43:28.048Z,3.20
2017-09-06T11:45:54.711Z,3.00
2017-09-06T11:48:21.367Z,2.37
2017-09-06T11:50:48.021Z,2.27
2017-09-06T11:53:14.675Z,2.17
2017-09-06T11:55:41.338Z,2.20
2017-09-06T11:58:07.992Z,2.10
2017-09-06T12:00:34.667Z,1.60
2017-09-06T12:03:01.320Z,1.60
2017-09-06T12:05:28.020Z,1.87
2017-09-06T12:07:54.676Z,1.73
2017-09-06T12:10:21.327Z,1.80
2017-09-06T12:12:47.979Z,1.90
2017-09-06T12:15:14.628Z,1.80
2017-09-06T12:17:41.284Z,2.13
2017-09-06T12:20:07.953Z,2.10
2017-09-06T12:22:34.617Z,1.90
2017-09-06T12:25:01.271Z,1.90
2017-09-06T12:27:27.925Z,1.80
2017-09-06T12:29:54.640Z,1.90
2017-09-06T12:32:21.291Z,2.20
2017-09-06T12:34:47.948Z,1.70
2017-09-06T12:37:14.597Z,2.10
2017-09-06T12:39:41.254Z,2.00
2017-09-06T12:42:07.944Z,1.90
2017-09-06T12:44:34.629Z,2.17
2017-09-06T12:47:01.291Z,2.33
2017-09-06T12:49:27.948Z,1.70
2017-09-06T12:51:54.608Z,2.25
2017-09-06T12:54:21.272Z,2.60
2017-09-06T12:56:47.932Z,1.80
2017-09-06T12:59:14.595Z,2.97
2017-09-06T13:01:41.270Z,13.50
2017-09-06T13:04:07.947Z,4.80
2017-09-06T13:06:34.611Z,3.35
2017-09-06T13:09:01.331Z,2.33
2017-09-06T13:11:27.979Z,3.30
2017-09-06T13:13:54.631Z,2.83
2017-09-06T13:16:21.304Z,2.90
2017-09-06T13:18:47.951Z,2.50
2017-09-06T13:21:14.631Z,2.30
2017-09-06T13:23:41.283Z,2.63
2017-09-06T13:26:07.950Z,2.20
2017-09-06T13:28:34.599Z,2.40
2017-09-06T13:31:01.271Z,2.13
2017-09-06T13:33:27.959Z,2.30
2017-09-06T13:35:54.636Z,2.53
2017-09-06T13:38:21.284Z,2.40
2017-09-06T13:40:47.976Z,2.70
2017-09-06T13:43:14.639Z,2.10
2017-09-06T13:45:41.332Z,2.40
2017-09-06T13:48:07.987Z,2.50
2017-09-06T13:50:34.644Z,2.20
2017-09-06T13:53:01.358Z,2.50
2017-09-06T13:55:28.011Z,2.50
2017-09-06T13:57:54.691Z,2.30
2017-09-06T14:00:21.338Z,2.27
2017-09-06T14:02:48.011Z,2.63
2017-09-06T14:05:14.658Z,2.40
2017-09-06T14:07:41.335Z,2.43
2017-09-06T14:10:07.987Z,2.50
2017-09-06T14:12:34.667Z,2.63
2017-09-06T14:15:01.340Z,2.90
2017-09-06T14:17:28.044Z,3.03
2017-09-06T14:19:54.712Z,2.45
2017-09-06T14:22:21.388Z,2.78
2017-09-06T14:24:48.051Z,3.17
2017-09-06T14:27:14.715Z,2.70
2017-09-06T14:29:41.376Z,2.50
2017-09-06T14:32:08.039Z,3.00
2017-09-06T14:34:34.731Z,3.35
2017-09-06T14:37:01.387Z,2.60
2017-09-06T14:39:28.067Z,2.92
2017-09-06T14:41:54.731Z,2.65
2017-09-06T14:44:21.482Z,3.15
2017-09-06T14:46:48.139Z,3.30
2017-09-06T14:49:14.845Z,2.85
2017-09-06T14:51:41.558Z,2.85
2017-09-06T14:54:08.223Z,3.78
2017-09-06T14:56:34.899Z,2.90
2017-09-06T14:59:01.603Z,3.25
2017-09-06T15:01:28.354Z,3.45
2017-09-06T15:03:55.013Z,3.20
2017-09-06T15:06:21.672Z,3.03
2017-09-06T15:08:48.323Z,3.20
2017-09-06T15:11:15.056Z,3.83
2017-09-06T15:13:41.731Z,4.22
2017-09-06T15:16:08.420Z,3.10
2017-09-06T15:18:35.079Z,3.87
2017-09-06T15:21:01.777Z,3.58
2017-09-06T15:23:28.443Z,2.72
2017-09-06T15:25:55.140Z,3.20
2017-09-06T15:28:21.800Z,3.15
2017-09-06T15:30:48.559Z,3.30
2017-09-06T15:33:15.219Z,2.90
2017-09-06T15:35:41.879Z,3.15
2017-09-06T15:38:08.532Z,3.17
2017-09-06T15:40:35.187Z,3.12
2017-09-06T15:43:01.867Z,3.37
2017-09-06T15:45:28.534Z,3.00
2017-09-06T15:47:55.231Z,3.20
2017-09-06T15:50:21.901Z,3.55
2017-09-06T15:52:48.595Z,3.42
2017-09-06T15:55:15.262Z,2.75
2017-09-06T15:57:41.919Z,2.60
2017-09-06T16:00:08.588Z,2.70
2017-09-06T16:02:35.248Z,2.60
2017-09-06T16:05:01.915Z,3.35
2017-09-06T16:07:28.575Z,2.87
2017-09-06T16:09:55.248Z,2.95
2017-09-06T16:12:21.904Z,2.70
2017-09-06T16:14:48.564Z,2.80
2017-09-06T16:17:15.215Z,2.75
2017-09-06T16:19:41.903Z,2.72
2017-09-06T16:22:08.556Z,2.75
2017-09-06T16:24:35.204Z,2.70
2017-09-06T16:27:01.855Z,3.05
2017-09-06T16:29:28.503Z,2.50
2017-09-06T16:31:55.155Z,3.45
2017-09-06T16:34:21.804Z,3.60
2017-09-06T16:36:48.452Z,3.33
2017-09-06T16:39:15.113Z,2.90
2017-09-06T16:41:41.870Z,2.85
2017-09-06T16:44:08.520Z,3.03
2017-09-06T16:46:35.211Z,3.25
2017-09-06T16:49:01.863Z,2.80
2017-09-06T16:51:28.525Z,3.28
2017-09-06T16:53:55.178Z,3.20
2017-09-06T16:56:21.827Z,3.33
2017-09-06T16:58:48.504Z,3.10
2017-09-06T17:01:15.159Z,2.80
2017-09-06T17:03:41.812Z,2.78
2017-09-06T17:06:08.467Z,2.87
2017-09-06T17:08:35.139Z,3.15
2017-09-06T17:11:01.807Z,3.20
2017-09-06T17:13:28.460Z,2.97
2017-09-06T17:15:55.108Z,3.22
2017-09-06T17:18:21.780Z,3.60
2017-09-06T17:20:48.441Z,3.55
2017-09-06T17:23:15.104Z,4.10
2017-09-06T17:25:41.768Z,3.45
2017-09-06T17:28:08.459Z,3.65
2017-09-06T17:30:35.127Z,3.50
2017-09-06T17:33:01.779Z,3.40
2017-09-06T17:35:28.443Z,3.10
2017-09-06T17:37:55.133Z,3.87
2017-09-06T17:40:21.787Z,2.90
2017-09-06T17:42:48.439Z,3.40
2017-09-06T17:45:15.087Z,3.25
2017-09-06T17:47:41.743Z,3.35
2017-09-06T17:50:08.414Z,3.30
2017-09-06T17:52:35.068Z,3.22
2017-09-06T17:55:01.759Z,2.78
2017-09-06T17:57:28.406Z,2.78
2017-09-06T17:59:55.055Z,4.18
2017-09-06T18:02:21.707Z,3.47
2017-09-06T18:04:48.361Z,3.53
2017-09-06T18:07:15.015Z,3.60
2017-09-06T18:09:41.667Z,3.40
2017-09-06T18:12:08.328Z,3.05
2017-09-06T18:14:34.976Z,3.20
2017-09-06T18:17:01.627Z,3.80
2017-09-06T18:19:28.288Z,2.97
2017-09-06T18:21:55.056Z,3.65
2017-09-06T18:24:21.707Z,3.22
2017-09-06T18:26:48.387Z,3.40
2017-09-06T18:29:15.043Z,3.83
2017-09-06T18:31:41.700Z,3.78
2017-09-06T18:34:08.355Z,3.45
2017-09-06T18:36:35.011Z,3.40
2017-09-06T18:39:01.671Z,3.92
2017-09-06T18:41:28.330Z,3.70
2017-09-06T18:43:54.987Z,3.78
2017-09-06T18:46:21.639Z,3.70
2017-09-06T18:48:48.315Z,3.67
2017-09-06T18:51:14.991Z,3.45
2017-09-06T18:53:41.668Z,3.85
2017-09-06T18:56:08.320Z,4.93
2017-09-06T18:58:34.979Z,3.53
2017-09-06T19:01:01.668Z,3.45
2017-09-06T19:03:28.323Z,3.97
2017-09-06T19:05:54.983Z,3.30
2017-09-06T19:08:21.664Z,3.55
2017-09-06T19:10:48.314Z,4.35
2017-09-06T19:13:14.967Z,3.78
2017-09-06T19:15:41.648Z,4.30
2017-09-06T19:18:08.311Z,4.05
2017-09-06T19:20:34.996Z,3.40
2017-09-06T19:23:01.647Z,4.20
2017-09-06T19:25:28.324Z,4.47
2017-09-06T19:27:55.039Z,3.97
2017-09-06T19:30:21.715Z,3.85
2017-09-06T19:32:48.407Z,4.20
2017-09-06T19:35:15.088Z,3.67
2017-09-06T19:37:41.743Z,3.17
2017-09-06T19:40:08.400Z,3.65
2017-09-06T19:42:35.090Z,3.87
2017-09-06T19:45:01.748Z,3.25
2017-09-06T19:47:28.428Z,3.65
2017-09-06T19:49:55.098Z,3.42
2017-09-06T19:52:21.783Z,3.97
2017-09-06T19:54:48.439Z,3.72
2017-09-06T19:57:15.123Z,15.45
2017-09-06T19:59:41.784Z,3.40
2017-09-06T20:02:08.463Z,3.35
2017-09-06T20:04:35.125Z,4.55
2017-09-06T20:07:01.834Z,3.55
2017-09-06T20:09:28.507Z,4.30
2017-09-06T20:11:55.168Z,3.40
2017-09-06T20:14:21.855Z,3.95
2017-09-06T20:16:48.515Z,3.60
2017-09-06T20:19:15.179Z,4.43
2017-09-06T20:21:41.838Z,4.62
2017-09-06T20:24:08.519Z,3.80
2017-09-06T20:26:35.175Z,3.58
2017-09-06T20:29:01.855Z,4.60
2017-09-06T20:31:28.507Z,4.10
2017-09-06T20:33:55.178Z,4.50
2017-09-06T20:36:21.827Z,4.32
2017-09-06T20:38:48.511Z,3.40
2017-09-06T20:41:15.163Z,3.90
2017-09-06T20:43:41.890Z,4.20
2017-09-06T20:46:08.544Z,4.53
2017-09-06T20:48:35.208Z,5.00
2017-09-06T20:51:01.859Z,3.78
2017-09-06T20:53:28.516Z,5.65
2017-09-06T20:55:55.200Z,4.25
2017-09-06T20:58:21.863Z,4.62
2017-09-06T21:00:48.540Z,4.65
2017-09-06T21:03:15.195Z,3.97
2017-09-06T21:05:41.880Z,5.05
2017-09-06T21:08:08.535Z,4.30
2017-09-06T21:10:35.215Z,4.00
2017-09-06T21:13:01.880Z,4.20
2017-09-06T21:15:28.565Z,4.60
2017-09-06T21:17:55.227Z,4.80
2017-09-06T21:20:21.907Z,4.35
2017-09-06T21:22:48.568Z,5.40
2017-09-06T21:25:15.251Z,5.40
2017-09-06T21:27:41.915Z,4.82
2017-09-06T21:30:08.601Z,5.55
2017-09-06T21:32:35.267Z,5.05
2017-09-06T21:35:01.924Z,5.35
2017-09-06T21:37:28.588Z,5.30
2017-09-06T21:39:55.239Z,5.12
2017-09-06T21:42:21.917Z,5.05
2017-09-06T21:44:48.571Z,4.68
2017-09-06T21:47:15.255Z,4.80
2017-09-06T21:49:41.914Z,5.28
2017-09-06T21:52:08.597Z,5.35
2017-09-06T21:54:35.260Z,4.87
2017-09-06T21:57:01.944Z,5.37
2017-09-06T21:59:28.607Z,5.40
2017-09-06T22:01:55.267Z,5.05
2017-09-06T22:04:21.923Z,5.07
2017-09-06T22:06:48.584Z,5.45
2017-09-06T22:09:15.272Z,5.45
2017-09-06T22:11:41.935Z,5.97
2017-09-06T22:14:08.616Z,5.28
2017-09-06T22:16:35.271Z,5.32
2017-09-06T22:19:01.965Z,6.28
2017-09-06T22:21:28.623Z,5.37
2017-09-06T22:23:55.280Z,5.85
2017-09-06T22:26:21.930Z,5.78
2017-09-06T22:28:48.588Z,5.45
2017-09-06T22:31:15.256Z,5.68
2017-09-06T22:34:19.506Z,5.25
2017-09-06T22:36:46.171Z,5.62
2017-09-06T22:39:12.828Z,5.37
2017-09-06T22:41:39.496Z,5.20
2017-09-06T22:44:06.155Z,5.15
2017-09-06T22:46:32.812Z,4.87
2017-09-06T22:48:59.470Z,5.37
2017-09-06T22:51:26.127Z,5.95
2017-09-06T22:53:52.785Z,4.78
2017-09-06T22:56:19.472Z,5.78
2017-09-06T22:58:46.127Z,5.20
2017-09-06T23:01:12.813Z,5.20
2017-09-06T23:03:39.479Z,5.55
2017-09-06T23:06:06.163Z,4.72
2017-09-06T23:08:32.819Z,5.75
2017-09-06T23:10:59.511Z,5.47
2017-09-06T23:13:26.163Z,5.20
2017-09-06T23:15:53.263Z,5.00
2017-09-06T23:18:19.924Z,6.25
2017-09-06T23:20:46.583Z,6.40
2017-09-06T23:23:13.252Z,5.90
2017-09-06T23:25:39.911Z,6.03
2017-09-06T23:28:06.567Z,6.80
2017-09-06T23:30:33.227Z,5.80
2017-09-06T23:32:59.927Z,6.70
2017-09-06T23:35:26.580Z,5.80
2017-09-06T23:37:53.259Z,5.60
2017-09-06T23:40:19.923Z,6.87
2017-09-06T23:42:46.575Z,6.15
2017-09-06T23:45:13.232Z,6.93
2017-09-06T23:47:39.892Z,6.57
2017-09-06T23:50:06.553Z,6.00
2017-09-06T23:52:33.215Z,7.30
2017-09-06T23:54:59.880Z,6.55
2017-09-06T23:57:26.538Z,6.72
2017-09-06T23:59:53.226Z,7.68
